Kiliya — UZDN — position and weather

sailwx.info

Track history (hours):
 
Tides and Currents Weather Stations Pressure Air Temp Water Temp Dewpoint Dewpoint Depression Visibility Wind Speed Wind Dir Waves Ship Positions

Kiliya

Last reported at 2017-Oct-16 01:31 UTC. Time now 2017-Oct-17 08:17 UTC.
Position N 46°32' E 032°05'.

Length 96 m; draft 2.7 m.

Type: Cargo ship. MMSI: 27202500.

Date/timePositionNaut miles runAvg speedWind from/ knotsBaromVisibWave heightAir tempDewpointWater temp
2017-Oct-16 01:31N 46°32' E 032°05'1 7.6
2017-Oct-16 01:26N 46°32' E 032°04'3 7.8
2017-Oct-16 01:00N 46°33' E 031°59'4 7.7
2017-Oct-16 00:30N 46°34' E 031°54'4 7.5
2017-Oct-15 23:57N 46°36' E 031°48'3 6.9
2017-Oct-15 23:28N 46°35' E 031°43'35 6.6
2017-Oct-15 18:09N 46°31' E 030°53'1 6.9
2017-Oct-15 18:00N 46°31' E 030°51'3 6.2
2017-Oct-15 17:30N 46°30' E 030°47'1 2.5
2017-Oct-15 16:58N 46°29' E 030°45'0 0.0
2017-Oct-15 16:30N 46°29' E 030°45'0 0.0
2017-Oct-15 15:59N 46°29' E 030°45'0 0.0
2017-Oct-15 15:30N 46°29' E 030°45'0 0.0
2017-Oct-15 14:59N 46°29' E 030°45'0 0.0
2017-Oct-15 14:00N 46°29' E 030°45'0 0.0
2017-Oct-15 13:30N 46°29' E 030°45'0 0.0
2017-Oct-15 12:57N 46°29' E 030°45'0 0.0
2017-Oct-15 12:30N 46°29' E 030°45'0 0.0
2017-Oct-15 12:00N 46°29' E 030°45'0 0.0
2017-Oct-15 11:30N 46°29' E 030°45'0 0.0
2017-Oct-15 11:00N 46°29' E 030°45'0 0.0
2017-Oct-15 10:30N 46°29' E 030°45'0 0.0
2017-Oct-15 09:59N 46°29' E 030°45'0 0.0
2017-Oct-15 09:29N 46°29' E 030°45'0 0.0
2017-Oct-15 09:00N 46°29' E 030°45'0 0.0
2017-Oct-15 08:30N 46°29' E 030°45'0 0.0
2017-Oct-15 08:00N 46°29' E 030°45'0 0.0
2017-Oct-15 07:30N 46°29' E 030°45'0 0.0
2017-Oct-15 07:00N 46°29' E 030°45'0 0.0
2017-Oct-15 06:30N 46°29' E 030°45'0 0.0
2017-Oct-15 05:59N 46°29' E 030°45'0 0.0
2017-Oct-15 05:30N 46°29' E 030°45'0 0.0
2017-Oct-15 05:00N 46°29' E 030°45'0 0.0
2017-Oct-15 04:30N 46°29' E 030°45'0 0.0
2017-Oct-15 04:00N 46°29' E 030°45'0 0.0
2017-Oct-15 03:30N 46°29' E 030°45'0 0.0
2017-Oct-15 02:58N 46°29' E 030°45'0 0.0
2017-Oct-15 02:30N 46°29' E 030°45'0 0.0
2017-Oct-15 02:00N 46°29' E 030°45'0 0.0
2017-Oct-15 01:30N 46°29' E 030°45'0 0.0
2017-Oct-15 01:00N 46°29' E 030°45'0 0.0
2017-Oct-15 00:30N 46°29' E 030°45'0 0.0
2017-Oct-15 00:00N 46°29' E 030°45'0 0.0
2017-Oct-14 23:29N 46°29' E 030°45'0 0.0
2017-Oct-14 23:00N 46°29' E 030°45'0 0.0
2017-Oct-14 22:30N 46°29' E 030°45'0 0.0
2017-Oct-14 22:00N 46°29' E 030°45'0 0.0
2017-Oct-14 21:30N 46°29' E 030°45'0 0.0
2017-Oct-14 21:00N 46°29' E 030°45'0 0.0
2017-Oct-14 20:29N 46°29' E 030°45'0 0.0
2017-Oct-14 20:00N 46°29' E 030°45'0 0.0
2017-Oct-14 19:30N 46°29' E 030°45'0 0.0
2017-Oct-14 19:00N 46°29' E 030°45'0 0.0
2017-Oct-14 18:30N 46°29' E 030°45'0 0.0
2017-Oct-14 18:01N 46°29' E 030°45'0 0.0
2017-Oct-14 17:30N 46°29' E 030°45'0 0.0
2017-Oct-14 17:00N 46°29' E 030°45'0 0.0
2017-Oct-14 16:31N 46°29' E 030°45'0 0.0
2017-Oct-14 16:00N 46°29' E 030°45'0 0.0
2017-Oct-14 15:31N 46°29' E 030°45'0 0.0
2017-Oct-14 15:00N 46°29' E 030°45'0 0.0
2017-Oct-14 14:30N 46°29' E 030°45'0 0.0
2017-Oct-14 14:00N 46°29' E 030°45'0 0.0
2017-Oct-14 13:30N 46°29' E 030°45'0 0.0
2017-Oct-14 13:00N 46°29' E 030°45'0 0.0
2017-Oct-14 12:30N 46°29' E 030°45'1 2.0
2017-Oct-14 12:01N 46°30' E 030°46'1 1.1
2017-Oct-14 11:30N 46°31' E 030°46'0 0.0
2017-Oct-14 11:00N 46°31' E 030°47'0 0.0
2017-Oct-14 10:30N 46°31' E 030°47'0 0.0
2017-Oct-14 10:01N 46°31' E 030°47'0 0.0
2017-Oct-14 09:30N 46°31' E 030°47'0 0.0
2017-Oct-14 09:00N 46°31' E 030°47'0 0.0
2017-Oct-14 08:30N 46°31' E 030°47'0 0.0
2017-Oct-14 08:00N 46°31' E 030°47'0 0.0
2017-Oct-14 07:30N 46°31' E 030°47'0 0.0
2017-Oct-14 07:00N 46°31' E 030°47'0 0.0
2017-Oct-14 06:30N 46°31' E 030°47'0 0.0
2017-Oct-14 06:00N 46°31' E 030°47'0 0.0
2017-Oct-14 05:30N 46°31' E 030°47'0 0.0
2017-Oct-14 05:00N 46°31' E 030°47'0 0.0
2017-Oct-14 04:30N 46°31' E 030°47'0 0.0
2017-Oct-14 04:00N 46°31' E 030°47'0 0.0
2017-Oct-14 03:30N 46°31' E 030°47'0 0.0
2017-Oct-14 03:00N 46°31' E 030°47'0 0.0
2017-Oct-14 02:30N 46°31' E 030°47'0 0.0
2017-Oct-14 02:00N 46°31' E 030°47'0 0.0
2017-Oct-14 01:30N 46°31' E 030°47'0 0.0
2017-Oct-14 01:00N 46°31' E 030°47'0 0.0
2017-Oct-14 00:30N 46°31' E 030°47'0 0.0
2017-Oct-14 00:00N 46°31' E 030°47'0 0.0
2017-Oct-13 23:30N 46°31' E 030°47'0 0.0
2017-Oct-13 23:00N 46°31' E 030°47'0 0.0
2017-Oct-13 22:30N 46°31' E 030°47'0 0.0
2017-Oct-13 22:00N 46°31' E 030°47'0 0.0
2017-Oct-13 21:30N 46°31' E 030°47'0 0.0
2017-Oct-13 21:00N 46°31' E 030°47'0 0.0
2017-Oct-13 20:30N 46°31' E 030°47'0 0.0
2017-Oct-13 20:00N 46°31' E 030°47'0 0.1
2017-Oct-13 19:30N 46°31' E 030°46'1 2.7
2017-Oct-13 19:00N 46°31' E 030°48'3 4.8
2017-Oct-13 18:26N 46°31' E 030°52'38 6.2
2017-Oct-13 12:25N 46°36' E 031°47'3 6.3
2017-Oct-13 11:56N 46°35' E 031°51'3 6.3
2017-Oct-13 11:30N 46°34' E 031°55'3 6.6
2017-Oct-13 11:00N 46°33' E 031°59'4 6.6
2017-Oct-13 10:28N 46°32' E 032°04'  
2017-Oct-08 13:42N 48°12' E 014°58'1 5.8
2017-Oct-08 13:31N 48°12' E 014°59'3 6.0
2017-Oct-08 13:00N 48°12' E 015°04'1 1.3
2017-Oct-08 12:31N 48°11' E 015°04'1 1.8
2017-Oct-08 12:01N 48°11' E 015°05'1 2.5
2017-Oct-08 11:30N 48°11' E 015°07'2 3.8
2017-Oct-08 11:01N 48°13' E 015°08'3 5.2
2017-Oct-08 10:31N 48°13' E 015°12'3 5.9
2017-Oct-08 10:00N 48°13' E 015°17'1 1.1
2017-Oct-08 08:54N 48°14' E 015°18'46 2.8
2017-Oct-07 16:08N 48°11' E 016°28'1 6.2
2017-Oct-07 16:00N 48°11' E 016°28'1 0.5
2017-Oct-07 14:58N 48°10' E 016°29'11 2.3
2017-Oct-07 10:21N 48°08' E 016°44'1 2.4
2017-Oct-07 09:54N 48°08' E 016°46'1 2.3
2017-Oct-07 09:25N 48°07' E 016°47'1 2.5
2017-Oct-07 08:56N 48°07' E 016°49'1 2.3
2017-Oct-07 08:28N 48°07' E 016°50'1 2.3
2017-Oct-07 07:57N 48°08' E 016°52'1 2.5
2017-Oct-07 07:30N 48°08' E 016°54'1 2.3
2017-Oct-07 07:00N 48°09' E 016°55'1 2.3
2017-Oct-07 06:30N 48°09' E 016°57'1 2.6
2017-Oct-07 06:00N 48°10' E 016°58'1 2.3
2017-Oct-07 05:30N 48°10' E 016°59'1 2.4
2017-Oct-07 05:00N 48°09' E 017°01'1 2.4
2017-Oct-07 04:30N 48°08' E 017°02'1 2.7
2017-Oct-07 04:00N 48°09' E 017°04'1 2.9
2017-Oct-07 03:30N 48°08' E 017°06'2 3.2
2017-Oct-07 03:00N 48°08' E 017°09'2 3.0
2017-Oct-07 02:30N 48°06' E 017°08'2 4.4
2017-Oct-07 02:00N 48°04' E 017°09'2 4.8
2017-Oct-07 01:30N 48°03' E 017°12'2 5.0
2017-Oct-07 01:00N 48°02' E 017°15'3 5.1
2017-Oct-07 00:30N 48°00' E 017°18'2 3.7
2017-Oct-07 00:00N 47°60' E 017°21'3 5.3
2017-Oct-06 23:31N 47°58' E 017°24'3 6.8
2017-Oct-06 23:00N 47°56' E 017°28'3 6.6
2017-Oct-06 22:30N 47°54' E 017°31'1 1.6
2017-Oct-06 21:55N 47°53' E 017°32'0 0.5
2017-Oct-06 21:30N 47°53' E 017°33'0 0.4
2017-Oct-06 21:00N 47°53' E 017°33'0 0.4
2017-Oct-06 20:30N 47°52' E 017°33'3 5.1
2017-Oct-06 20:00N 47°50' E 017°35'3 5.3
2017-Oct-06 19:31N 47°48' E 017°38'2 4.5
2017-Oct-06 19:01N 47°47' E 017°40'2 4.2
2017-Oct-06 18:31N 47°45' E 017°42'3 2.8
2017-Oct-06 17:33N 47°45' E 017°46'0 3.0
2017-Oct-06 17:30N 47°45' E 017°46'  
Track history (hours):
 
Tides and Currents Weather Stations Pressure Air Temp Water Temp Dewpoint Dewpoint Depression Visibility Wind Speed Wind Dir Waves Ship Positions

Kiliya

Last reported at 2017-Oct-16 01:31 UTC. Time now 2017-Oct-17 08:17 UTC.
Position N 46°32' E 032°05'.

Length 96 m; draft 2.7 m.

Type: Cargo ship. MMSI: 27202500.

Date/timePositionNaut miles runAvg speedWind from/ knotsBaromVisibWave heightAir tempDewpointWater temp
2017-Oct-16 01:31N 46°32' E 032°05'1 7.6
2017-Oct-16 01:26N 46°32' E 032°04'3 7.8
2017-Oct-16 01:00N 46°33' E 031°59'4 7.7
2017-Oct-16 00:30N 46°34' E 031°54'4 7.5
2017-Oct-15 23:57N 46°36' E 031°48'3 6.9
2017-Oct-15 23:28N 46°35' E 031°43'35 6.6
2017-Oct-15 18:09N 46°31' E 030°53'1 6.9
2017-Oct-15 18:00N 46°31' E 030°51'3 6.2
2017-Oct-15 17:30N 46°30' E 030°47'1 2.5
2017-Oct-15 16:58N 46°29' E 030°45'0 0.0
2017-Oct-15 16:30N 46°29' E 030°45'0 0.0
2017-Oct-15 15:59N 46°29' E 030°45'0 0.0
2017-Oct-15 15:30N 46°29' E 030°45'0 0.0
2017-Oct-15 14:59N 46°29' E 030°45'0 0.0
2017-Oct-15 14:00N 46°29' E 030°45'0 0.0
2017-Oct-15 13:30N 46°29' E 030°45'0 0.0
2017-Oct-15 12:57N 46°29' E 030°45'0 0.0
2017-Oct-15 12:30N 46°29' E 030°45'0 0.0
2017-Oct-15 12:00N 46°29' E 030°45'0 0.0
2017-Oct-15 11:30N 46°29' E 030°45'0 0.0
2017-Oct-15 11:00N 46°29' E 030°45'0 0.0
2017-Oct-15 10:30N 46°29' E 030°45'0 0.0
2017-Oct-15 09:59N 46°29' E 030°45'0 0.0
2017-Oct-15 09:29N 46°29' E 030°45'0 0.0
2017-Oct-15 09:00N 46°29' E 030°45'0 0.0
2017-Oct-15 08:30N 46°29' E 030°45'0 0.0
2017-Oct-15 08:00N 46°29' E 030°45'0 0.0
2017-Oct-15 07:30N 46°29' E 030°45'0 0.0
2017-Oct-15 07:00N 46°29' E 030°45'0 0.0
2017-Oct-15 06:30N 46°29' E 030°45'0 0.0
2017-Oct-15 05:59N 46°29' E 030°45'0 0.0
2017-Oct-15 05:30N 46°29' E 030°45'0 0.0
2017-Oct-15 05:00N 46°29' E 030°45'0 0.0
2017-Oct-15 04:30N 46°29' E 030°45'0 0.0
2017-Oct-15 04:00N 46°29' E 030°45'0 0.0
2017-Oct-15 03:30N 46°29' E 030°45'0 0.0
2017-Oct-15 02:58N 46°29' E 030°45'0 0.0
2017-Oct-15 02:30N 46°29' E 030°45'0 0.0
2017-Oct-15 02:00N 46°29' E 030°45'0 0.0
2017-Oct-15 01:30N 46°29' E 030°45'0 0.0
2017-Oct-15 01:00N 46°29' E 030°45'0 0.0
2017-Oct-15 00:30N 46°29' E 030°45'0 0.0
2017-Oct-15 00:00N 46°29' E 030°45'0 0.0
2017-Oct-14 23:29N 46°29' E 030°45'0 0.0
2017-Oct-14 23:00N 46°29' E 030°45'0 0.0
2017-Oct-14 22:30N 46°29' E 030°45'0 0.0
2017-Oct-14 22:00N 46°29' E 030°45'0 0.0
2017-Oct-14 21:30N 46°29' E 030°45'0 0.0
2017-Oct-14 21:00N 46°29' E 030°45'0 0.0
2017-Oct-14 20:29N 46°29' E 030°45'0 0.0
2017-Oct-14 20:00N 46°29' E 030°45'0 0.0
2017-Oct-14 19:30N 46°29' E 030°45'0 0.0
2017-Oct-14 19:00N 46°29' E 030°45'0 0.0
2017-Oct-14 18:30N 46°29' E 030°45'0 0.0
2017-Oct-14 18:01N 46°29' E 030°45'0 0.0
2017-Oct-14 17:30N 46°29' E 030°45'0 0.0
2017-Oct-14 17:00N 46°29' E 030°45'0 0.0
2017-Oct-14 16:31N 46°29' E 030°45'0 0.0
2017-Oct-14 16:00N 46°29' E 030°45'0 0.0
2017-Oct-14 15:31N 46°29' E 030°45'0 0.0
2017-Oct-14 15:00N 46°29' E 030°45'0 0.0
2017-Oct-14 14:30N 46°29' E 030°45'0 0.0
2017-Oct-14 14:00N 46°29' E 030°45'0 0.0
2017-Oct-14 13:30N 46°29' E 030°45'0 0.0
2017-Oct-14 13:00N 46°29' E 030°45'0 0.0
2017-Oct-14 12:30N 46°29' E 030°45'1 2.0
2017-Oct-14 12:01N 46°30' E 030°46'1 1.1
2017-Oct-14 11:30N 46°31' E 030°46'0 0.0
2017-Oct-14 11:00N 46°31' E 030°47'0 0.0
2017-Oct-14 10:30N 46°31' E 030°47'0 0.0
2017-Oct-14 10:01N 46°31' E 030°47'0 0.0
2017-Oct-14 09:30N 46°31' E 030°47'0 0.0
2017-Oct-14 09:00N 46°31' E 030°47'0 0.0
2017-Oct-14 08:30N 46°31' E 030°47'0 0.0
2017-Oct-14 08:00N 46°31' E 030°47'0 0.0
2017-Oct-14 07:30N 46°31' E 030°47'0 0.0
2017-Oct-14 07:00N 46°31' E 030°47'0 0.0
2017-Oct-14 06:30N 46°31' E 030°47'0 0.0
2017-Oct-14 06:00N 46°31' E 030°47'0 0.0
2017-Oct-14 05:30N 46°31' E 030°47'0 0.0
2017-Oct-14 05:00N 46°31' E 030°47'0 0.0
2017-Oct-14 04:30N 46°31' E 030°47'0 0.0
2017-Oct-14 04:00N 46°31' E 030°47'0 0.0
2017-Oct-14 03:30N 46°31' E 030°47'0 0.0
2017-Oct-14 03:00N 46°31' E 030°47'0 0.0
2017-Oct-14 02:30N 46°31' E 030°47'0 0.0
2017-Oct-14 02:00N 46°31' E 030°47'0 0.0
2017-Oct-14 01:30N 46°31' E 030°47'0 0.0
2017-Oct-14 01:00N 46°31' E 030°47'0 0.0
2017-Oct-14 00:30N 46°31' E 030°47'0 0.0
2017-Oct-14 00:00N 46°31' E 030°47'0 0.0
2017-Oct-13 23:30N 46°31' E 030°47'0 0.0
2017-Oct-13 23:00N 46°31' E 030°47'0 0.0
2017-Oct-13 22:30N 46°31' E 030°47'0 0.0
2017-Oct-13 22:00N 46°31' E 030°47'0 0.0
2017-Oct-13 21:30N 46°31' E 030°47'0 0.0
2017-Oct-13 21:00N 46°31' E 030°47'0 0.0
2017-Oct-13 20:30N 46°31' E 030°47'0 0.0
2017-Oct-13 20:00N 46°31' E 030°47'0 0.1
2017-Oct-13 19:30N 46°31' E 030°46'1 2.7
2017-Oct-13 19:00N 46°31' E 030°48'3 4.8
2017-Oct-13 18:26N 46°31' E 030°52'38 6.2
2017-Oct-13 12:25N 46°36' E 031°47'3 6.3
2017-Oct-13 11:56N 46°35' E 031°51'3 6.3
2017-Oct-13 11:30N 46°34' E 031°55'3 6.6
2017-Oct-13 11:00N 46°33' E 031°59'4 6.6
2017-Oct-13 10:28N 46°32' E 032°04'  
2017-Oct-08 13:42N 48°12' E 014°58'1 5.8
2017-Oct-08 13:31N 48°12' E 014°59'3 6.0
2017-Oct-08 13:00N 48°12' E 015°04'1 1.3
2017-Oct-08 12:31N 48°11' E 015°04'1 1.8
2017-Oct-08 12:01N 48°11' E 015°05'1 2.5
2017-Oct-08 11:30N 48°11' E 015°07'2 3.8
2017-Oct-08 11:01N 48°13' E 015°08'3 5.2
2017-Oct-08 10:31N 48°13' E 015°12'3 5.9
2017-Oct-08 10:00N 48°13' E 015°17'1 1.1
2017-Oct-08 08:54N 48°14' E 015°18'46 2.8
2017-Oct-07 16:08N 48°11' E 016°28'1 6.2
2017-Oct-07 16:00N 48°11' E 016°28'1 0.5
2017-Oct-07 14:58N 48°10' E 016°29'11 2.3
2017-Oct-07 10:21N 48°08' E 016°44'1 2.4
2017-Oct-07 09:54N 48°08' E 016°46'1 2.3
2017-Oct-07 09:25N 48°07' E 016°47'1 2.5
2017-Oct-07 08:56N 48°07' E 016°49'1 2.3
2017-Oct-07 08:28N 48°07' E 016°50'1 2.3
2017-Oct-07 07:57N 48°08' E 016°52'1 2.5
2017-Oct-07 07:30N 48°08' E 016°54'1 2.3
2017-Oct-07 07:00N 48°09' E 016°55'1 2.3
2017-Oct-07 06:30N 48°09' E 016°57'1 2.6
2017-Oct-07 06:00N 48°10' E 016°58'1 2.3
2017-Oct-07 05:30N 48°10' E 016°59'1 2.4
2017-Oct-07 05:00N 48°09' E 017°01'1 2.4
2017-Oct-07 04:30N 48°08' E 017°02'1 2.7
2017-Oct-07 04:00N 48°09' E 017°04'1 2.9
2017-Oct-07 03:30N 48°08' E 017°06'2 3.2
2017-Oct-07 03:00N 48°08' E 017°09'2 3.0
2017-Oct-07 02:30N 48°06' E 017°08'2 4.4
2017-Oct-07 02:00N 48°04' E 017°09'2 4.8
2017-Oct-07 01:30N 48°03' E 017°12'2 5.0
2017-Oct-07 01:00N 48°02' E 017°15'3 5.1
2017-Oct-07 00:30N 48°00' E 017°18'2 3.7
2017-Oct-07 00:00N 47°60' E 017°21'3 5.3
2017-Oct-06 23:31N 47°58' E 017°24'3 6.8
2017-Oct-06 23:00N 47°56' E 017°28'3 6.6
2017-Oct-06 22:30N 47°54' E 017°31'1 1.6
2017-Oct-06 21:55N 47°53' E 017°32'0 0.5
2017-Oct-06 21:30N 47°53' E 017°33'0 0.4
2017-Oct-06 21:00N 47°53' E 017°33'0 0.4
2017-Oct-06 20:30N 47°52' E 017°33'3 5.1
2017-Oct-06 20:00N 47°50' E 017°35'3 5.3
2017-Oct-06 19:31N 47°48' E 017°38'2 4.5
2017-Oct-06 19:01N 47°47' E 017°40'2 4.2
2017-Oct-06 18:31N 47°45' E 017°42'3 2.8
2017-Oct-06 17:33N 47°45' E 017°46'0 3.0
2017-Oct-06 17:30N 47°45' E 017°46'  

Dump ship's entire track history